createdAt,value
2019-02-15T00:00:00.551Z,67.55
2019-02-15T00:02:32.981Z,67.69
2019-02-15T00:05:07.386Z,67.63
2019-02-15T00:07:38.994Z,67.80
2019-02-15T00:10:10.764Z,67.96
2019-02-15T00:12:42.222Z,68.16
2019-02-15T00:15:13.656Z,68.14
2019-02-15T00:18:08.094Z,68.01
2019-02-15T00:20:48.644Z,68.03
2019-02-15T00:23:20.642Z,68.13
2019-02-15T00:25:52.273Z,68.15
2019-02-15T00:28:25.674Z,68.29
2019-02-15T00:30:57.271Z,68.30
2019-02-15T00:33:28.680Z,68.55
2019-02-15T00:36:00.891Z,68.71
2019-02-15T00:38:32.317Z,68.89
2019-02-15T00:41:04.256Z,68.96
2019-02-15T00:43:35.656Z,69.07
2019-02-15T00:46:23.228Z,69.23
2019-02-15T00:48:54.753Z,69.31
2019-02-15T00:51:50.765Z,69.38
2019-02-15T00:54:30.917Z,69.56
2019-02-15T00:57:20.839Z,69.86
2019-02-15T01:00:17.285Z,70.10
2019-02-15T01:03:02.858Z,70.27
2019-02-15T01:05:55.113Z,70.29
2019-02-15T01:08:45.061Z,70.43
2019-02-15T01:11:35.144Z,70.74
2019-02-15T01:14:06.707Z,70.93
2019-02-15T01:16:38.440Z,70.92
2019-02-15T01:19:10.310Z,70.75
2019-02-15T01:21:41.738Z,70.49
2019-02-15T01:24:13.739Z,70.20
2019-02-15T01:26:49.910Z,69.96
2019-02-15T01:29:51.795Z,69.92
2019-02-15T01:32:53.022Z,69.99
2019-02-15T01:35:40.073Z,69.90
2019-02-15T01:38:39.157Z,70.34
2019-02-15T01:41:27.995Z,70.34
2019-02-15T01:44:14.509Z,70.30
2019-02-15T01:46:59.576Z,70.40
2019-02-15T01:49:32.466Z,70.42
2019-02-15T01:52:03.996Z,70.34
2019-02-15T01:54:35.595Z,70.13
2019-02-15T01:57:07.050Z,70.36
2019-02-15T01:59:39.081Z,70.52
2019-02-15T02:02:11.764Z,70.44
2019-02-15T02:04:43.149Z,70.22
2019-02-15T02:07:14.712Z,70.47
2019-02-15T02:09:46.353Z,70.25
2019-02-15T02:12:17.975Z,69.88
2019-02-15T02:14:51.025Z,69.55
2019-02-15T02:17:24.605Z,69.33
2019-02-15T02:19:56.046Z,69.19
2019-02-15T02:22:27.443Z,69.14
2019-02-15T02:24:59.894Z,69.12
2019-02-15T02:27:34.407Z,69.05
2019-02-15T02:30:08.675Z,69.09
2019-02-15T02:32:40.497Z,69.05
2019-02-15T02:35:13.283Z,69.04
2019-02-15T02:37:45.096Z,69.06
2019-02-15T02:40:17.377Z,69.02
2019-02-15T02:42:48.788Z,69.02
2019-02-15T02:45:20.641Z,69.17
2019-02-15T02:47:52.211Z,69.27
2019-02-15T02:50:23.847Z,69.64
2019-02-15T02:52:55.323Z,69.87
2019-02-15T02:55:26.741Z,69.89
2019-02-15T02:57:58.116Z,69.67
2019-02-15T03:00:33.486Z,69.53
2019-02-15T03:03:03.177Z,69.43
2019-02-15T03:05:43.644Z,69.39
2019-02-15T03:08:15.254Z,69.40
2019-02-15T03:10:47.047Z,69.51
2019-02-15T03:13:19.144Z,69.62
2019-02-15T03:15:50.719Z,69.77
2019-02-15T03:18:22.057Z,69.82
2019-02-15T03:20:53.875Z,70.10
2019-02-15T03:23:25.265Z,70.36
2019-02-15T03:25:56.644Z,70.38
2019-02-15T03:28:28.221Z,70.19
2019-02-15T03:30:59.576Z,70.36
2019-02-15T03:33:31.300Z,70.61
2019-02-15T03:36:04.923Z,70.67
2019-02-15T03:38:41.010Z,70.55
2019-02-15T03:41:31.076Z,70.41
2019-02-15T03:44:04.128Z,70.31
2019-02-15T03:46:36.920Z,70.54
2019-02-15T03:49:08.169Z,70.48
2019-02-15T03:51:39.801Z,70.37
2019-02-15T03:54:11.225Z,70.12
2019-02-15T03:56:42.866Z,70.10
2019-02-15T03:59:14.761Z,70.06
2019-02-15T04:01:46.551Z,69.97
2019-02-15T04:04:18.065Z,69.90
2019-02-15T04:06:49.467Z,69.59
2019-02-15T04:09:21.105Z,69.71
2019-02-15T04:11:52.453Z,69.70
2019-02-15T04:14:32.462Z,69.82
2019-02-15T04:16:57.502Z,70.03
2019-02-15T04:19:28.912Z,70.08
2019-02-15T04:22:00.705Z,70.15
2019-02-15T04:24:32.067Z,70.32
2019-02-15T04:27:03.359Z,70.34
2019-02-15T04:29:34.702Z,70.38
2019-02-15T04:32:06.610Z,70.53
2019-02-15T04:34:37.956Z,70.41
2019-02-15T04:37:10.232Z,70.21
2019-02-15T04:39:41.543Z,70.16
2019-02-15T04:42:13.038Z,70.03
2019-02-15T04:44:44.482Z,70.01
2019-02-15T04:47:16.214Z,69.91
2019-02-15T04:49:47.848Z,70.26
2019-02-15T04:52:19.268Z,70.40
2019-02-15T04:54:50.792Z,70.48
2019-02-15T04:57:22.622Z,70.78
2019-02-15T04:59:54.076Z,70.83
2019-02-15T05:02:25.318Z,71.09
2019-02-15T05:04:58.312Z,71.00
2019-02-15T05:07:29.824Z,70.64
2019-02-15T05:10:01.378Z,70.46
2019-02-15T05:12:32.588Z,70.29
2019-02-15T05:15:04.242Z,70.10
2019-02-15T05:17:35.827Z,70.14
2019-02-15T05:20:07.491Z,70.04
2019-02-15T05:22:39.117Z,70.05
2019-02-15T05:25:10.645Z,69.97
2019-02-15T05:27:42.061Z,69.75
2019-02-15T05:30:13.574Z,69.74
2019-02-15T05:32:45.104Z,69.88
2019-02-15T05:35:16.512Z,69.94
2019-02-15T05:37:47.869Z,70.02
2019-02-15T05:40:19.177Z,70.13
2019-02-15T05:42:50.510Z,70.30
2019-02-15T05:45:22.421Z,70.32
2019-02-15T05:47:53.724Z,70.34
2019-02-15T05:50:25.027Z,70.41
2019-02-15T05:52:56.841Z,70.36
2019-02-15T05:55:28.181Z,70.47
2019-02-15T05:57:59.495Z,70.74
2019-02-15T06:00:36.937Z,70.96
2019-02-15T06:03:04.521Z,70.98
2019-02-15T06:05:36.278Z,71.02
2019-02-15T06:08:07.702Z,71.10
2019-02-15T06:10:39.005Z,71.16
2019-02-15T06:13:10.702Z,71.25
2019-02-15T06:15:42.048Z,71.32
2019-02-15T06:18:13.354Z,71.36
2019-02-15T06:20:44.730Z,71.32
2019-02-15T06:23:16.141Z,71.35
2019-02-15T06:25:48.095Z,71.46
2019-02-15T06:28:19.592Z,71.43
2019-02-15T06:30:51.335Z,71.31
2019-02-15T06:33:23.113Z,71.09
2019-02-15T06:35:54.441Z,70.89
2019-02-15T06:38:34.566Z,70.89
2019-02-15T06:40:59.036Z,70.74
2019-02-15T06:43:30.549Z,70.64
2019-02-15T06:46:02.137Z,70.50
2019-02-15T06:48:33.760Z,70.46
2019-02-15T06:51:05.130Z,70.36
2019-02-15T06:53:36.602Z,70.30
2019-02-15T06:56:08.263Z,70.49
2019-02-15T06:58:45.819Z,70.77
2019-02-15T07:01:27.108Z,70.84
2019-02-15T07:04:17.185Z,70.63
2019-02-15T07:06:49.130Z,70.70
2019-02-15T07:09:20.505Z,70.62
2019-02-15T07:11:51.958Z,70.53
2019-02-15T07:14:23.239Z,70.63
2019-02-15T07:16:57.279Z,70.67
2019-02-15T07:19:28.854Z,70.51
2019-02-15T07:22:00.207Z,70.41
2019-02-15T07:24:31.908Z,70.33
2019-02-15T07:27:03.421Z,70.29
2019-02-15T07:29:34.744Z,70.15
2019-02-15T07:32:06.293Z,69.86
2019-02-15T07:34:38.233Z,69.69
2019-02-15T07:37:09.689Z,69.46
2019-02-15T07:39:41.599Z,69.16
2019-02-15T07:42:13.160Z,69.04
2019-02-15T07:44:44.752Z,69.08
2019-02-15T07:47:16.191Z,69.25
2019-02-15T07:49:47.854Z,69.68
2019-02-15T07:52:19.707Z,69.83
2019-02-15T07:54:51.353Z,69.59
2019-02-15T07:57:23.919Z,69.49
2019-02-15T07:59:56.628Z,69.45
2019-02-15T08:02:28.060Z,69.06
2019-02-15T08:04:59.517Z,68.88
2019-02-15T08:07:31.269Z,69.04
2019-02-15T08:10:02.937Z,69.05
2019-02-15T08:12:34.568Z,68.79
2019-02-15T08:15:06.579Z,68.37
2019-02-15T08:17:38.138Z,68.01
2019-02-15T08:20:11.153Z,67.87
2019-02-15T08:22:42.776Z,67.67
2019-02-15T08:25:14.240Z,67.57
2019-02-15T08:27:45.740Z,67.22
2019-02-15T08:30:17.278Z,67.56
2019-02-15T08:32:48.977Z,67.62
2019-02-15T08:35:20.467Z,67.34
2019-02-15T08:37:52.018Z,67.29
2019-02-15T08:40:23.874Z,67.08
2019-02-15T08:42:56.019Z,66.82
2019-02-15T08:45:27.817Z,66.55
2019-02-15T08:47:59.224Z,66.28
2019-02-15T08:50:30.847Z,66.25
2019-02-15T08:53:03.501Z,66.03
2019-02-15T08:55:36.936Z,65.57
2019-02-15T08:58:08.824Z,65.18
2019-02-15T09:00:41.298Z,64.79
2019-02-15T09:03:13.658Z,64.62
2019-02-15T09:05:45.166Z,64.62
2019-02-15T09:08:16.464Z,64.43
2019-02-15T09:10:48.396Z,64.13
2019-02-15T09:13:20.299Z,63.90
2019-02-15T09:15:51.944Z,63.68
2019-02-15T09:18:23.832Z,63.86
2019-02-15T09:20:55.404Z,63.65
2019-02-15T09:23:28.514Z,63.58
2019-02-15T09:26:00.105Z,62.99
2019-02-15T09:28:36.761Z,62.00
2019-02-15T09:31:08.616Z,61.82
2019-02-15T09:33:40.130Z,61.30
2019-02-15T09:36:12.659Z,60.78
2019-02-15T09:38:44.869Z,60.30
2019-02-15T09:41:17.718Z,59.78
2019-02-15T09:43:49.298Z,59.21
2019-02-15T09:46:21.789Z,59.21
2019-02-15T09:48:53.197Z,58.32
2019-02-15T09:51:24.811Z,58.32
2019-02-15T09:53:56.290Z,57.91
2019-02-15T09:56:28.803Z,57.28
2019-02-15T09:59:00.990Z,57.27
2019-02-15T10:01:32.940Z,57.27
2019-02-15T10:04:04.506Z,56.83
2019-02-15T10:06:36.111Z,56.42
2019-02-15T10:09:11.682Z,56.14
2019-02-15T10:11:43.669Z,56.03
2019-02-15T10:14:15.767Z,55.59
2019-02-15T10:16:47.644Z,55.36
2019-02-15T10:19:22.396Z,55.18
2019-02-15T10:21:53.731Z,54.61
2019-02-15T10:24:25.895Z,54.13
2019-02-15T10:26:58.336Z,53.67
2019-02-15T10:29:30.659Z,53.13
2019-02-15T10:32:02.523Z,53.14
2019-02-15T10:34:34.182Z,53.09
2019-02-15T10:37:06.129Z,52.74
2019-02-15T10:39:39.539Z,52.35
2019-02-15T10:42:11.865Z,52.03
2019-02-15T10:44:44.165Z,52.06
2019-02-15T10:47:24.681Z,51.57
2019-02-15T10:49:52.046Z,51.04
2019-02-15T10:52:23.920Z,50.50
2019-02-15T10:54:55.569Z,50.57
2019-02-15T10:57:27.225Z,50.31
2019-02-15T10:59:59.074Z,49.68
2019-02-15T11:02:30.749Z,49.30
2019-02-15T11:05:02.401Z,49.00
2019-02-15T11:07:34.788Z,48.85
2019-02-15T11:10:07.120Z,48.83
2019-02-15T11:12:38.954Z,48.69
2019-02-15T11:15:12.312Z,47.98
2019-02-15T11:17:47.335Z,47.62
2019-02-15T11:20:20.764Z,47.50
2019-02-15T11:22:52.135Z,47.36
2019-02-15T11:25:24.581Z,47.02
2019-02-15T11:27:59.951Z,46.92
2019-02-15T11:30:31.518Z,46.39
2019-02-15T11:33:03.358Z,46.02
2019-02-15T11:35:39.069Z,46.10
2019-02-15T11:38:10.842Z,46.09
2019-02-15T11:40:46.060Z,46.19
2019-02-15T11:43:19.667Z,46.12
2019-02-15T11:45:51.466Z,45.75
2019-02-15T11:48:23.594Z,45.89
2019-02-15T11:50:55.067Z,45.69
2019-02-15T11:53:27.299Z,45.92
2019-02-15T11:55:59.585Z,45.73
2019-02-15T11:58:31.965Z,45.60
2019-02-15T12:01:05.359Z,45.70
2019-02-15T12:03:39.175Z,45.35
2019-02-15T12:06:10.835Z,45.37
2019-02-15T12:08:44.788Z,45.33
2019-02-15T12:11:16.625Z,45.33
2019-02-15T12:13:48.491Z,45.18
2019-02-15T12:16:20.481Z,45.09
2019-02-15T12:18:52.159Z,45.16
2019-02-15T12:21:24.522Z,45.40
2019-02-15T12:23:59.658Z,45.48
2019-02-15T12:26:32.491Z,45.97
2019-02-15T12:29:04.268Z,46.09
2019-02-15T12:31:35.652Z,46.01
2019-02-15T12:34:07.659Z,45.87
2019-02-15T12:36:40.381Z,45.25
2019-02-15T12:39:14.287Z,45.34
2019-02-15T12:41:46.218Z,45.42
2019-02-15T12:44:18.307Z,45.05
2019-02-15T12:46:54.967Z,44.93
2019-02-15T12:49:28.950Z,44.57
2019-02-15T12:52:04.827Z,44.53
2019-02-15T12:54:38.024Z,44.80
2019-02-15T12:57:16.759Z,44.31
2019-02-15T12:59:52.620Z,44.07
2019-02-15T13:02:26.777Z,44.16
2019-02-15T13:05:09.048Z,43.83
2019-02-15T13:07:48.898Z,43.98
2019-02-15T13:10:24.284Z,43.80
2019-02-15T13:12:57.207Z,43.99
2019-02-15T13:15:35.053Z,43.87
2019-02-15T13:18:09.993Z,43.81
2019-02-15T13:20:43.069Z,43.78
2019-02-15T13:23:14.710Z,43.87
2019-02-15T13:25:46.165Z,43.70
2019-02-15T13:28:33.690Z,43.64
2019-02-15T13:31:08.224Z,43.34
2019-02-15T13:33:48.610Z,43.11
2019-02-15T13:36:27.304Z,42.64
2019-02-15T13:39:00.986Z,42.41
2019-02-15T13:41:36.932Z,42.09
2019-02-15T13:44:09.647Z,42.19
2019-02-15T13:46:46.292Z,42.41
2019-02-15T13:49:18.244Z,42.46
2019-02-15T13:51:50.634Z,42.73
2019-02-15T13:54:31.318Z,42.79
2019-02-15T13:57:03.690Z,42.59
2019-02-15T13:59:44.146Z,42.67
2019-02-15T14:02:15.952Z,41.68
2019-02-15T14:04:52.243Z,41.61
2019-02-15T14:07:26.755Z,41.74
2019-02-15T14:10:00.025Z,41.69
2019-02-15T14:12:32.266Z,42.05
2019-02-15T14:15:06.342Z,42.26
2019-02-15T14:17:44.806Z,42.17
2019-02-15T14:20:15.426Z,42.07
2019-02-15T14:22:55.247Z,41.96
2019-02-15T14:25:35.474Z,41.95
2019-02-15T14:28:09.773Z,41.79
2019-02-15T14:30:47.729Z,41.84
2019-02-15T14:33:20.997Z,42.40
2019-02-15T14:35:55.841Z,42.03
2019-02-15T14:38:32.107Z,42.33
2019-02-15T14:41:07.036Z,42.79
2019-02-15T14:43:40.193Z,42.68
2019-02-15T14:46:20.596Z,43.00
2019-02-15T14:54:52.540Z,41.38
2019-02-15T14:57:29.326Z,42.33
2019-02-15T15:00:09.871Z,42.74
2019-02-15T15:02:40.868Z,42.83
2019-02-15T15:05:18.669Z,43.22
2019-02-15T15:07:57.160Z,44.07
2019-02-15T15:10:59.042Z,44.55
2019-02-15T15:13:35.926Z,44.82
2019-02-15T15:16:15.354Z,45.29
2019-02-15T15:18:49.048Z,45.59
2019-02-15T15:21:35.278Z,46.10
2019-02-15T15:24:07.636Z,46.10
2019-02-15T15:26:43.373Z,45.97
2019-02-15T15:29:14.760Z,45.86
2019-02-15T15:31:48.515Z,46.02
2019-02-15T15:34:22.854Z,46.10
2019-02-15T15:36:59.673Z,46.20
2019-02-15T15:39:35.472Z,46.31
2019-02-15T15:42:18.957Z,46.79
2019-02-15T15:44:56.385Z,47.20
2019-02-15T15:47:40.989Z,47.44
2019-02-15T15:50:28.714Z,47.88
2019-02-15T15:53:07.816Z,48.26
2019-02-15T15:55:42.156Z,48.79
2019-02-15T15:58:13.674Z,49.37
2019-02-15T16:00:45.344Z,49.64
2019-02-15T16:03:18.089Z,49.94
2019-02-15T16:08:52.443Z,50.45
2019-02-15T16:11:27.606Z,50.86
2019-02-15T16:14:12.916Z,51.37
2019-02-15T16:16:46.812Z,51.79
2019-02-15T16:19:18.996Z,52.51
2019-02-15T16:21:51.035Z,52.79
2019-02-15T16:24:25.715Z,53.00
2019-02-15T16:26:57.706Z,53.34
2019-02-15T16:29:30.164Z,53.88
2019-02-15T16:32:10.637Z,54.22
2019-02-15T16:34:42.680Z,54.68
2019-02-15T16:37:13.612Z,55.30
2019-02-15T16:39:46.580Z,55.79
2019-02-15T16:42:17.070Z,56.00
2019-02-15T16:44:51.007Z,56.29
2019-02-15T16:47:21.703Z,56.63
2019-02-15T16:49:59.931Z,56.86
2019-02-15T16:52:31.907Z,57.30
2019-02-15T16:55:12.877Z,57.73
2019-02-15T16:57:38.757Z,57.83
2019-02-15T17:00:54.258Z,58.01
2019-02-15T17:03:25.990Z,58.38
2019-02-15T17:06:39.968Z,58.79
2019-02-15T17:09:27.100Z,59.03
2019-02-15T17:12:09.197Z,59.25
2019-02-15T17:14:51.907Z,59.63
2019-02-15T17:17:37.364Z,59.89
2019-02-15T17:20:12.784Z,60.17
2019-02-15T17:22:43.252Z,60.42
2019-02-15T17:31:32.038Z,61.25
2019-02-15T17:37:18.982Z,61.84
2019-02-15T17:43:36.670Z,63.05
2019-02-15T17:46:26.130Z,63.05
2019-02-15T17:49:07.410Z,63.59
2019-02-15T17:51:49.235Z,63.81
2019-02-15T17:54:39.185Z,64.06
2019-02-15T17:57:22.159Z,64.06
2019-02-15T18:03:13.158Z,64.49
2019-02-15T18:05:55.685Z,65.21
2019-02-15T18:08:53.720Z,66.00
2019-02-15T18:11:25.391Z,66.07
2019-02-15T18:14:08.553Z,66.07
2019-02-15T18:16:44.745Z,66.19
2019-02-15T18:19:17.280Z,66.58
2019-02-15T18:21:48.227Z,66.58
2019-02-15T18:24:19.342Z,66.77
2019-02-15T18:26:50.627Z,66.77
2019-02-15T18:29:23.995Z,67.02
2019-02-15T18:32:13.778Z,67.02
2019-02-15T18:34:56.813Z,66.77
2019-02-15T18:37:38.654Z,66.94
2019-02-15T18:40:14.569Z,66.94
2019-02-15T18:43:05.531Z,66.94
2019-02-15T18:45:38.431Z,67.22
2019-02-15T18:48:28.578Z,67.37
2019-02-15T18:54:11.357Z,67.56
2019-02-15T18:56:42.637Z,67.76
2019-02-15T18:59:14.816Z,67.76
2019-02-15T19:01:50.017Z,67.74
2019-02-15T19:05:00.895Z,67.72
2019-02-15T19:07:43.589Z,67.89
2019-02-15T19:13:39.700Z,67.86
2019-02-15T19:16:21.385Z,68.06
2019-02-15T19:19:02.527Z,68.22
2019-02-15T19:21:33.499Z,68.53
2019-02-15T19:24:04.442Z,68.88
2019-02-15T19:26:41.202Z,69.00
2019-02-15T19:29:14.242Z,68.83
2019-02-15T19:31:48.072Z,68.54
2019-02-15T19:37:38.898Z,68.09
2019-02-15T19:40:20.973Z,67.75
2019-02-15T19:43:03.926Z,67.28
2019-02-15T19:49:38.898Z,66.32
2019-02-15T19:52:18.570Z,65.50
2019-02-15T19:58:21.507Z,64.07
2019-02-15T20:00:56.892Z,63.72
2019-02-15T20:03:29.505Z,63.42
2019-02-15T20:06:03.203Z,63.21
2019-02-15T20:08:34.137Z,63.09
2019-02-15T20:11:07.894Z,63.00
2019-02-15T20:13:39.445Z,63.07
2019-02-15T20:16:10.168Z,62.98
2019-02-15T20:18:41.529Z,62.99
2019-02-15T20:21:13.130Z,62.96
2019-02-15T20:23:44.134Z,63.00
2019-02-15T20:26:14.923Z,62.88
2019-02-15T20:28:45.440Z,62.77
2019-02-15T20:31:36.015Z,62.47
2019-02-15T20:37:19.352Z,61.75
2019-02-15T20:43:16.141Z,61.06
2019-02-15T20:46:05.459Z,60.67
2019-02-15T20:49:04.235Z,60.21
2019-02-15T20:51:27.956Z,59.23
2019-02-15T20:53:59.143Z,59.12
2019-02-15T20:56:48.986Z,58.70
2019-02-15T21:05:22.927Z,58.78
2019-02-15T21:07:55.863Z,59.10
2019-02-15T21:11:05.257Z,59.37
2019-02-15T21:13:54.929Z,59.08
2019-02-15T21:16:26.161Z,59.22
2019-02-15T21:18:56.604Z,59.21
2019-02-15T21:21:28.825Z,59.17
2019-02-15T21:24:38.139Z,59.84
2019-02-15T21:27:27.715Z,60.17
2019-02-15T21:29:58.313Z,60.14
2019-02-15T21:32:48.012Z,60.03
2019-02-15T21:35:38.067Z,59.53
2019-02-15T21:38:47.189Z,59.59
2019-02-15T21:41:48.281Z,59.30
2019-02-15T21:44:29.827Z,59.25
2019-02-15T21:47:19.342Z,59.39
2019-02-15T21:53:05.350Z,59.68
2019-02-15T21:55:46.708Z,59.52
2019-02-15T21:58:56.083Z,59.83
2019-02-15T22:01:57.270Z,59.70
2019-02-15T22:04:58.302Z,59.31
2019-02-15T22:07:30.126Z,59.30
2019-02-15T22:10:19.974Z,58.98
2019-02-15T22:12:50.307Z,58.92
2019-02-15T22:15:39.437Z,58.76
2019-02-15T22:18:21.103Z,58.62
2019-02-15T22:21:02.429Z,58.39
2019-02-15T22:23:43.826Z,58.40
2019-02-15T22:26:24.830Z,58.25
2019-02-15T22:29:06.688Z,58.13
2019-02-15T22:32:16.775Z,58.08
2019-02-15T22:37:58.286Z,57.90
2019-02-15T22:41:06.893Z,57.84
2019-02-15T22:43:49.546Z,57.84
2019-02-15T22:46:34.033Z,57.94
2019-02-15T22:49:14.682Z,58.00
2019-02-15T22:51:45.574Z,58.08
2019-02-15T22:54:16.193Z,58.13
2019-02-15T22:56:47.428Z,58.21
2019-02-15T22:59:17.981Z,58.17
2019-02-15T23:01:49.326Z,58.31
2019-02-15T23:04:21.873Z,58.46
2019-02-15T23:06:52.556Z,58.47
2019-02-15T23:09:27.286Z,58.54
2019-02-15T23:11:58.340Z,58.72
2019-02-15T23:14:29.511Z,58.83
2019-02-15T23:17:04.648Z,59.22
2019-02-15T23:19:35.667Z,59.22
2019-02-15T23:22:07.132Z,59.29
2019-02-15T23:25:16.249Z,59.40
2019-02-15T23:31:06.993Z,60.00
2019-02-15T23:33:56.127Z,60.10
2019-02-15T23:36:26.688Z,60.25
2019-02-15T23:39:07.804Z,60.47
2019-02-15T23:44:59.404Z,61.02
2019-02-15T23:47:30.215Z,60.88
2019-02-15T23:53:29.694Z,61.01
2019-02-15T23:56:01.453Z,61.25
2019-02-15T23:59:11.217Z,61.36
